createdAt,value
2019-04-26T00:00:48.082Z,47.85
2019-04-26T00:03:18.543Z,45.67
2019-04-26T00:05:47.483Z,44.98
2019-04-26T00:08:15.804Z,43.70
2019-04-26T00:18:20.971Z,41.29
2019-04-26T00:20:50.990Z,41.73
2019-04-26T00:23:22.629Z,40.81
2019-04-26T00:25:51.779Z,41.06
2019-04-26T00:28:21.190Z,39.67
2019-04-26T00:30:48.338Z,40.11
2019-04-26T00:33:15.853Z,40.51
2019-04-26T00:35:47.780Z,40.86
2019-04-26T00:38:11.615Z,39.98
2019-04-26T00:40:43.341Z,40.47
2019-04-26T00:43:12.868Z,40.30
2019-04-26T00:45:43.110Z,40.46
2019-04-26T00:48:14.002Z,41.08
2019-04-26T00:50:43.633Z,40.83
2019-04-26T00:53:13.311Z,40.16
2019-04-26T00:55:44.898Z,40.53
2019-04-26T00:58:14.923Z,40.71
2019-04-26T01:00:44.543Z,40.78
2019-04-26T01:03:16.628Z,40.80
2019-04-26T01:05:59.539Z,41.03
2019-04-26T01:08:19.247Z,40.74
2019-04-26T01:10:49.652Z,41.22
2019-04-26T01:13:17.849Z,41.66
2019-04-26T01:15:48.821Z,41.78
2019-04-26T01:18:16.862Z,41.97
2019-04-26T01:20:47.039Z,42.33
2019-04-26T01:23:14.428Z,42.67
2019-04-26T01:25:42.841Z,42.80
2019-04-26T01:28:15.222Z,42.91
2019-04-26T01:30:48.289Z,43.38
2019-04-26T01:33:18.729Z,44.03
2019-04-26T01:35:57.650Z,44.26
2019-04-26T01:41:12.102Z,44.69
2019-04-26T01:43:41.605Z,45.11
2019-04-26T01:46:09.508Z,45.39
2019-04-26T01:48:36.108Z,45.98
2019-04-26T01:51:05.612Z,45.65
2019-04-26T01:53:34.347Z,45.96
2019-04-26T01:56:04.622Z,46.16
2019-04-26T01:58:31.470Z,46.61
2019-04-26T02:01:01.186Z,46.68
2019-04-26T02:03:29.802Z,47.02
2019-04-26T02:05:59.405Z,47.02
2019-04-26T02:08:26.305Z,47.12
2019-04-26T02:10:53.127Z,47.23
2019-04-26T02:13:25.062Z,47.43
2019-04-26T02:15:52.803Z,47.96
2019-04-26T02:18:23.964Z,47.92
2019-04-26T02:20:53.692Z,48.17
2019-04-26T02:23:20.624Z,47.69
2019-04-26T02:25:48.016Z,47.92
2019-04-26T02:31:11.163Z,48.30
2019-04-26T02:33:40.182Z,48.49
2019-04-26T02:36:10.939Z,48.59
2019-04-26T02:38:39.844Z,48.32
2019-04-26T02:41:09.686Z,48.58
2019-04-26T02:43:37.325Z,48.50
2019-04-26T02:46:07.085Z,48.60
2019-04-26T02:48:37.959Z,48.64
2019-04-26T02:51:06.731Z,49.22
2019-04-26T02:53:38.669Z,49.14
2019-04-26T02:56:05.136Z,49.22
2019-04-26T02:58:35.948Z,49.26
2019-04-26T03:01:05.591Z,49.16
2019-04-26T03:03:37.645Z,49.16
2019-04-26T03:06:03.856Z,49.92
2019-04-26T03:08:31.877Z,50.02
2019-04-26T03:11:03.713Z,50.20
2019-04-26T03:13:32.184Z,50.36
2019-04-26T03:16:00.214Z,50.46
2019-04-26T03:18:26.940Z,50.02
2019-04-26T03:20:55.823Z,50.37
2019-04-26T03:23:23.489Z,50.28
2019-04-26T03:25:52.439Z,50.64
2019-04-26T03:28:21.829Z,50.46
2019-04-26T03:30:52.353Z,50.87
2019-04-26T03:33:19.179Z,50.81
2019-04-26T03:35:56.499Z,50.75
2019-04-26T03:38:14.436Z,50.73
2019-04-26T03:40:44.587Z,51.51
2019-04-26T03:43:14.212Z,51.35
2019-04-26T03:45:43.122Z,51.34
2019-04-26T03:48:09.680Z,51.02
2019-04-26T03:50:37.881Z,51.52
2019-04-26T03:53:04.957Z,51.88
2019-04-26T03:55:35.946Z,51.68
2019-04-26T03:58:04.896Z,51.83
2019-04-26T04:00:32.752Z,51.81
2019-04-26T04:02:59.849Z,52.47
2019-04-26T04:05:27.023Z,52.56
2019-04-26T04:07:59.108Z,52.24
2019-04-26T04:13:09.812Z,52.13
2019-04-26T04:15:41.902Z,51.96
2019-04-26T04:18:07.592Z,52.42
2019-04-26T04:20:34.173Z,52.53
2019-04-26T04:23:01.138Z,52.35
2019-04-26T04:25:28.776Z,52.27
2019-04-26T04:30:40.659Z,51.23
2019-04-26T04:33:12.217Z,51.87
2019-04-26T04:38:25.393Z,52.71
2019-04-26T04:40:53.421Z,51.95
2019-04-26T04:43:20.227Z,52.21
2019-04-26T04:45:49.655Z,52.41
2019-04-26T04:48:16.522Z,52.09
2019-04-26T04:50:44.931Z,52.26
2019-04-26T04:53:12.910Z,52.32
2019-04-26T04:55:39.733Z,51.84
2019-04-26T04:58:07.392Z,52.02
2019-04-26T05:00:35.028Z,52.06
2019-04-26T05:03:01.651Z,52.94
2019-04-26T05:05:28.722Z,53.04
2019-04-26T05:08:06.491Z,53.75
2019-04-26T05:10:28.521Z,53.70
2019-04-26T05:12:55.189Z,53.82
2019-04-26T05:15:21.831Z,53.46
2019-04-26T05:17:49.489Z,53.41
2019-04-26T05:20:16.634Z,52.93
2019-04-26T05:22:43.264Z,53.17
2019-04-26T05:25:09.853Z,52.54
2019-04-26T05:27:36.554Z,52.57
2019-04-26T05:30:03.531Z,53.08
2019-04-26T05:35:15.232Z,52.85
2019-04-26T05:37:41.818Z,53.92
2019-04-26T05:40:08.430Z,53.49
2019-04-26T05:42:35.385Z,53.50
2019-04-26T05:45:01.989Z,54.01
2019-04-26T05:50:13.487Z,54.54
2019-04-26T05:52:40.415Z,54.70
2019-04-26T05:55:07.018Z,54.91
2019-04-26T05:57:33.645Z,54.90
2019-04-26T06:00:01.099Z,54.83
2019-04-26T06:02:28.107Z,54.54
2019-04-26T06:04:55.474Z,53.93
2019-04-26T06:07:22.058Z,53.66
2019-04-26T06:09:50.325Z,54.47
2019-04-26T06:12:17.494Z,54.11
2019-04-26T06:14:44.694Z,54.75
2019-04-26T06:17:11.515Z,54.28
2019-04-26T06:19:38.318Z,54.42
2019-04-26T06:22:05.185Z,53.44
2019-04-26T06:24:32.157Z,54.24
2019-04-26T06:27:11.012Z,53.74
2019-04-26T06:29:27.350Z,54.12
2019-04-26T06:31:55.017Z,53.44
2019-04-26T06:34:22.988Z,52.74
2019-04-26T06:36:49.937Z,53.14
2019-04-26T06:39:20.470Z,53.26
2019-04-26T06:41:49.018Z,52.79
2019-04-26T06:44:22.143Z,53.21
2019-04-26T06:46:49.968Z,53.25
2019-04-26T06:49:24.014Z,52.72
2019-04-26T06:51:56.986Z,53.12
2019-04-26T06:54:32.824Z,53.32
2019-04-26T06:57:11.511Z,53.08
2019-04-26T06:59:36.421Z,53.59
2019-04-26T07:02:00.908Z,54.43
2019-04-26T07:04:30.338Z,53.66
2019-04-26T07:07:02.572Z,53.66
2019-04-26T07:12:15.916Z,53.60
2019-04-26T07:14:49.412Z,53.40
2019-04-26T07:17:18.478Z,52.96
2019-04-26T07:19:47.338Z,52.79
2019-04-26T07:22:35.204Z,52.85
2019-04-26T07:24:57.504Z,51.76
2019-04-26T07:30:12.190Z,51.22
2019-04-26T07:32:39.928Z,51.15
2019-04-26T07:35:09.766Z,51.57
2019-04-26T07:37:48.143Z,51.41
2019-04-26T07:40:13.561Z,51.53
2019-04-26T07:42:41.827Z,51.40
2019-04-26T07:45:12.468Z,52.57
2019-04-26T07:47:45.787Z,51.68
2019-04-26T07:50:12.688Z,52.16
2019-04-26T07:52:44.869Z,52.55
2019-04-26T07:55:12.887Z,51.86
2019-04-26T07:57:46.395Z,51.76
2019-04-26T08:00:13.097Z,51.03
2019-04-26T08:02:51.639Z,50.09
2019-04-26T08:05:24.394Z,50.01
2019-04-26T08:07:53.483Z,50.45
2019-04-26T08:10:21.893Z,50.72
2019-04-26T08:15:39.078Z,50.61
2019-04-26T08:18:17.341Z,51.02
2019-04-26T08:23:41.713Z,49.76
2019-04-26T08:28:50.636Z,50.68
2019-04-26T08:31:27.544Z,50.25
2019-04-26T08:33:59.223Z,48.98
2019-04-26T08:36:29.329Z,48.98
2019-04-26T08:39:06.977Z,49.25
2019-04-26T08:41:39.101Z,49.41
2019-04-26T08:44:17.226Z,48.90
2019-04-26T08:46:47.506Z,48.86
2019-04-26T08:49:25.765Z,47.95
2019-04-26T08:51:55.886Z,48.16
2019-04-26T08:54:22.523Z,48.63
2019-04-26T08:56:51.392Z,48.58
2019-04-26T08:59:19.736Z,48.11
2019-04-26T09:01:50.029Z,47.60
2019-04-26T09:04:18.718Z,47.69
2019-04-26T09:06:45.449Z,46.44
2019-04-26T09:09:18.296Z,46.54
2019-04-26T09:11:59.079Z,44.67
2019-04-26T09:14:18.497Z,45.06
2019-04-26T09:16:50.508Z,45.02
2019-04-26T09:19:17.641Z,44.66
2019-04-26T09:21:47.520Z,43.60
2019-04-26T09:24:21.148Z,42.20
2019-04-26T09:26:48.458Z,42.25
2019-04-26T09:29:16.750Z,42.68
2019-04-26T09:31:45.127Z,43.03
2019-04-26T09:34:14.355Z,41.23
2019-04-26T09:36:40.947Z,40.86
2019-04-26T09:39:09.786Z,39.33
2019-04-26T09:41:39.451Z,40.96
2019-04-26T09:44:08.640Z,40.28
2019-04-26T09:46:35.606Z,38.60
2019-04-26T09:49:03.088Z,37.06
2019-04-26T09:51:34.775Z,38.01
2019-04-26T09:54:03.002Z,36.52
2019-04-26T09:56:33.535Z,38.63
2019-04-26T09:59:01.474Z,39.13
2019-04-26T10:01:30.885Z,38.58
2019-04-26T10:04:00.636Z,39.79
2019-04-26T10:12:01.062Z,38.87
2019-04-26T10:14:28.468Z,37.96
2019-04-26T10:16:56.333Z,38.69
2019-04-26T10:19:31.641Z,38.78
2019-04-26T10:22:00.739Z,37.69
2019-04-26T10:24:30.028Z,36.87
2019-04-26T10:27:03.306Z,36.71
2019-04-26T10:32:09.316Z,35.56
2019-04-26T10:34:38.096Z,38.34
2019-04-26T10:37:08.187Z,38.41
2019-04-26T10:39:37.047Z,36.88
2019-04-26T10:42:06.229Z,37.62
2019-04-26T10:44:35.843Z,37.38
2019-04-26T10:47:04.393Z,37.44
2019-04-26T10:49:34.658Z,36.73
2019-04-26T10:52:06.289Z,36.84
2019-04-26T10:54:36.804Z,37.67
2019-04-26T10:57:05.157Z,38.97
2019-04-26T10:59:39.908Z,38.20
2019-04-26T11:02:05.180Z,38.19
2019-04-26T11:04:32.007Z,37.24
2019-04-26T11:07:01.978Z,38.27
2019-04-26T11:09:27.638Z,39.96
2019-04-26T11:11:54.560Z,37.15
2019-04-26T11:14:22.608Z,37.70
2019-04-26T11:16:50.084Z,39.24
2019-04-26T11:19:16.963Z,39.37
2019-04-26T11:21:43.881Z,39.94
2019-04-26T11:24:11.102Z,39.52
2019-04-26T11:26:39.312Z,39.45
2019-04-26T11:29:06.229Z,38.88
2019-04-26T11:31:33.417Z,39.67
2019-04-26T11:34:05.518Z,39.10
2019-04-26T11:36:29.230Z,39.17
2019-04-26T11:38:56.097Z,39.47
2019-04-26T11:41:22.976Z,38.92
2019-04-26T11:43:52.871Z,38.76
2019-04-26T11:46:21.821Z,38.72
2019-04-26T11:48:58.554Z,39.08
2019-04-26T11:51:16.098Z,39.53
2019-04-26T11:53:44.950Z,38.51
2019-04-26T11:56:14.017Z,37.78
2019-04-26T11:58:40.810Z,38.47
2019-04-26T12:01:07.622Z,36.03
2019-04-26T12:03:34.814Z,36.44
2019-04-26T12:06:01.729Z,36.33
2019-04-26T12:08:28.594Z,35.94
2019-04-26T12:10:55.328Z,37.04
2019-04-26T12:13:25.098Z,35.44
2019-04-26T12:15:52.117Z,36.46
2019-04-26T12:18:19.005Z,36.47
2019-04-26T12:20:45.705Z,37.63
2019-04-26T12:23:13.570Z,35.23
2019-04-26T12:25:43.625Z,35.78
2019-04-26T12:28:10.169Z,35.79
2019-04-26T12:30:37.319Z,35.95
2019-04-26T12:33:07.269Z,36.49
2019-04-26T12:35:34.173Z,35.63
2019-04-26T12:38:01.056Z,35.64
2019-04-26T12:40:27.902Z,35.84
2019-04-26T12:42:54.767Z,36.75
2019-04-26T12:45:21.632Z,36.16
2019-04-26T12:47:48.787Z,35.94
2019-04-26T12:50:16.354Z,36.04
2019-04-26T12:52:42.994Z,35.76
2019-04-26T12:55:21.948Z,36.80
2019-04-26T13:02:55.713Z,34.83
2019-04-26T13:05:22.793Z,35.18
2019-04-26T13:07:49.731Z,34.90
2019-04-26T13:10:16.631Z,35.70
2019-04-26T13:12:43.516Z,37.49
2019-04-26T13:15:13.234Z,35.94
2019-04-26T13:17:39.450Z,36.34
2019-04-26T13:20:06.312Z,36.56
2019-04-26T13:22:45.341Z,35.23
2019-04-26T13:25:02.399Z,35.86
2019-04-26T13:27:29.293Z,37.01
2019-04-26T13:30:02.445Z,34.90
2019-04-26T13:32:24.722Z,34.41
2019-04-26T13:34:51.288Z,35.01
2019-04-26T13:37:18.217Z,34.89
2019-04-26T13:39:46.314Z,35.79
2019-04-26T13:42:13.614Z,33.84
2019-04-26T13:44:41.790Z,34.37
2019-04-26T13:47:09.578Z,34.78
2019-04-26T13:49:36.427Z,34.70
2019-04-26T13:52:03.312Z,35.96
2019-04-26T13:54:30.571Z,35.17
2019-04-26T13:56:57.465Z,35.87
2019-04-26T13:59:24.339Z,37.14
2019-04-26T14:01:51.254Z,35.86
2019-04-26T14:04:18.147Z,35.50
2019-04-26T14:06:44.998Z,35.93
2019-04-26T14:09:12.390Z,34.66
2019-04-26T14:11:39.283Z,34.27
2019-04-26T14:14:05.893Z,34.57
2019-04-26T14:16:32.850Z,34.66
2019-04-26T14:18:59.451Z,35.56
2019-04-26T14:21:29.252Z,35.68
2019-04-26T14:23:55.160Z,35.48
2019-04-26T14:26:22.111Z,35.70
2019-04-26T14:28:49.035Z,35.56
2019-04-26T14:31:16.751Z,35.62
2019-04-26T14:33:44.296Z,35.54
2019-04-26T14:36:17.622Z,33.47
2019-04-26T14:38:41.284Z,32.57
2019-04-26T14:41:08.392Z,31.81
2019-04-26T14:43:41.019Z,32.52
2019-04-26T14:46:04.495Z,32.17
2019-04-26T14:48:36.139Z,33.34
2019-04-26T14:51:07.866Z,32.56
2019-04-26T14:53:32.094Z,32.53
2019-04-26T14:55:57.569Z,32.74
2019-04-26T14:58:29.989Z,32.81
2019-04-26T15:00:55.913Z,32.64
2019-04-26T15:03:22.586Z,33.42
2019-04-26T15:05:50.057Z,33.24
2019-04-26T15:08:16.963Z,32.54
2019-04-26T15:10:48.762Z,32.18
2019-04-26T15:13:19.948Z,32.64
2019-04-26T15:15:42.369Z,31.29
2019-04-26T15:18:10.204Z,32.39
2019-04-26T15:20:37.097Z,31.85
2019-04-26T15:23:04.011Z,31.40
2019-04-26T15:25:31.816Z,31.00
2019-04-26T15:27:59.572Z,30.88
2019-04-26T15:32:58.848Z,31.71
2019-04-26T15:38:11.310Z,32.46
2019-04-26T15:40:38.159Z,32.37
2019-04-26T15:43:14.395Z,31.83
2019-04-26T15:45:38.795Z,31.80
2019-04-26T15:48:02.330Z,32.27
2019-04-26T15:50:29.293Z,32.39
2019-04-26T15:52:56.522Z,32.80
2019-04-26T15:55:23.681Z,32.93
2019-04-26T15:57:50.609Z,33.06
2019-04-26T16:00:17.557Z,32.79
2019-04-26T16:02:44.457Z,33.00
2019-04-26T16:05:12.357Z,33.25
2019-04-26T16:07:39.703Z,34.01
2019-04-26T16:10:06.616Z,33.56
2019-04-26T16:12:33.496Z,33.87
2019-04-26T16:15:02.300Z,34.01
2019-04-26T16:17:28.750Z,33.79
2019-04-26T16:19:56.065Z,33.91
2019-04-26T16:22:25.793Z,33.57
2019-04-26T16:24:53.199Z,33.03
2019-04-26T16:27:19.928Z,33.84
2019-04-26T16:29:50.820Z,34.31
2019-04-26T16:32:16.871Z,33.85
2019-04-26T16:34:47.635Z,33.75
2019-04-26T16:37:15.038Z,34.59
2019-04-26T16:39:43.316Z,33.76
2019-04-26T16:42:09.972Z,33.66
2019-04-26T16:44:36.958Z,34.12
2019-04-26T16:47:05.905Z,33.83
2019-04-26T16:52:05.546Z,34.22
2019-04-26T16:54:29.846Z,33.12
2019-04-26T16:56:59.117Z,33.57
2019-04-26T16:59:26.824Z,32.71
2019-04-26T17:00:45.500Z,33.97
2019-04-26T17:01:53.950Z,33.22
2019-04-26T17:04:28.682Z,33.13
2019-04-26T17:06:50.209Z,33.65
2019-04-26T17:09:17.103Z,32.60
2019-04-26T17:11:49.661Z,32.90
2019-04-26T17:14:16.632Z,33.93
2019-04-26T17:16:44.462Z,34.11
2019-04-26T17:19:11.912Z,33.89
2019-04-26T17:21:39.969Z,33.51
2019-04-26T17:24:09.606Z,33.61
2019-04-26T17:26:36.486Z,34.15
2019-04-26T17:29:03.741Z,34.22
2019-04-26T17:31:30.569Z,33.56
2019-04-26T17:33:57.474Z,33.84
2019-04-26T17:36:24.398Z,34.85
2019-04-26T17:38:51.288Z,35.01
2019-04-26T17:41:18.486Z,35.19
2019-04-26T17:43:47.418Z,35.19
2019-04-26T17:46:14.559Z,34.97
2019-04-26T17:48:44.875Z,35.39
2019-04-26T17:51:18.495Z,35.33
2019-04-26T17:53:40.187Z,35.53
2019-04-26T17:56:07.359Z,35.16
2019-04-26T17:58:49.199Z,34.70
2019-04-26T18:01:03.805Z,35.23
2019-04-26T18:03:32.539Z,35.65
2019-04-26T18:06:00.874Z,35.96
2019-04-26T18:08:38.692Z,36.19
2019-04-26T18:10:56.322Z,36.27
2019-04-26T18:13:23.117Z,36.31
2019-04-26T18:15:49.994Z,35.72
2019-04-26T18:18:18.271Z,36.44
2019-04-26T18:20:45.149Z,36.35
2019-04-26T18:23:15.423Z,36.70
2019-04-26T18:25:41.288Z,37.05
2019-04-26T18:28:13.255Z,36.42
2019-04-26T18:30:40.391Z,36.66
2019-04-26T18:33:06.749Z,36.14
2019-04-26T18:35:33.807Z,36.64
2019-04-26T18:38:00.658Z,37.01
2019-04-26T18:40:27.504Z,36.89
2019-04-26T18:42:55.100Z,36.82
2019-04-26T18:45:28.762Z,36.90
2019-04-26T18:47:50.348Z,36.43
2019-04-26T18:50:18.642Z,36.58
2019-04-26T18:52:45.650Z,36.74
2019-04-26T18:55:14.869Z,36.92
2019-04-26T18:57:43.022Z,37.23
2019-04-26T19:00:10.016Z,37.20
2019-04-26T19:02:36.905Z,37.71
2019-04-26T19:05:04.492Z,37.86
2019-04-26T19:07:32.678Z,38.43
2019-04-26T19:10:04.681Z,38.37
2019-04-26T19:12:28.473Z,38.52
2019-04-26T19:15:03.292Z,38.60
2019-04-26T19:17:26.185Z,38.70
2019-04-26T19:19:53.154Z,39.15
2019-04-26T19:22:22.542Z,39.29
2019-04-26T19:24:54.197Z,39.60
2019-04-26T19:27:22.386Z,39.60
2019-04-26T19:29:48.041Z,39.29
2019-04-26T19:32:15.924Z,38.64
2019-04-26T19:34:42.563Z,38.71
2019-04-26T19:37:10.809Z,39.40
2019-04-26T19:39:37.796Z,39.26
2019-04-26T19:42:06.283Z,39.72
2019-04-26T19:44:34.316Z,40.00
2019-04-26T19:47:06.537Z,40.02
2019-04-26T19:49:33.355Z,40.23
2019-04-26T19:52:03.718Z,40.65
2019-04-26T19:54:35.454Z,41.13
2019-04-26T19:57:01.078Z,40.97
2019-04-26T19:59:33.248Z,40.93
2019-04-26T20:01:57.835Z,41.48
2019-04-26T20:04:30.642Z,41.88
2019-04-26T20:06:55.419Z,42.95
2019-04-26T20:09:26.364Z,43.17
2019-04-26T20:11:57.971Z,43.47
2019-04-26T20:14:25.807Z,43.32
2019-04-26T20:16:49.566Z,43.14
2019-04-26T20:19:17.979Z,43.12
2019-04-26T20:21:45.475Z,43.26
2019-04-26T20:24:13.552Z,43.11
2019-04-26T20:26:41.956Z,43.79
2019-04-26T20:29:10.152Z,43.42
2019-04-26T20:31:44.978Z,43.84
2019-04-26T20:34:10.968Z,43.37
2019-04-26T20:36:40.730Z,43.86
2019-04-26T20:39:03.884Z,43.97
2019-04-26T20:41:32.575Z,43.94
2019-04-26T20:44:06.958Z,44.13
2019-04-26T20:46:36.011Z,44.14
2019-04-26T20:49:09.270Z,44.40
2019-04-26T20:51:32.347Z,44.60
2019-04-26T20:53:59.666Z,45.36
2019-04-26T20:56:27.543Z,45.24
2019-04-26T20:58:57.455Z,45.20
2019-04-26T21:01:23.876Z,45.24
2019-04-26T21:03:55.318Z,45.20
2019-04-26T21:06:23.872Z,45.38
2019-04-26T21:08:53.782Z,46.03
2019-04-26T21:11:19.229Z,45.85
2019-04-26T21:13:48.833Z,46.08
2019-04-26T21:16:15.849Z,46.58
2019-04-26T21:18:44.797Z,46.95
2019-04-26T21:21:12.137Z,47.23
2019-04-26T21:23:43.850Z,46.87
2019-04-26T21:26:16.474Z,47.26
2019-04-26T21:28:43.862Z,47.53
2019-04-26T21:31:12.522Z,47.91
2019-04-26T21:33:42.929Z,47.72
2019-04-26T21:36:11.157Z,47.66
2019-04-26T21:38:38.731Z,48.43
2019-04-26T21:41:11.449Z,48.62
2019-04-26T21:43:37.955Z,48.27
2019-04-26T21:46:08.328Z,48.16
2019-04-26T21:48:37.344Z,48.05
2019-04-26T21:51:14.400Z,48.17
2019-04-26T21:53:42.156Z,48.63
2019-04-26T21:56:07.449Z,48.76
2019-04-26T21:58:38.591Z,46.92
2019-04-26T22:01:05.485Z,48.17
2019-04-26T22:03:34.900Z,49.16
2019-04-26T22:06:04.161Z,49.10
2019-04-26T22:08:34.734Z,48.74
2019-04-26T22:11:03.565Z,48.63
2019-04-26T22:13:33.342Z,48.98
2019-04-26T22:16:00.694Z,48.11
2019-04-26T22:18:40.030Z,48.33
2019-04-26T22:21:07.827Z,47.15
2019-04-26T22:23:36.341Z,46.43
2019-04-26T22:26:08.617Z,46.14
2019-04-26T22:28:36.333Z,44.59
2019-04-26T22:31:08.546Z,44.21
2019-04-26T22:33:34.350Z,44.29
2019-04-26T22:36:04.766Z,44.49
2019-04-26T22:38:33.986Z,44.26
2019-04-26T22:41:02.936Z,44.06
2019-04-26T22:43:29.784Z,43.32
2019-04-26T22:46:02.955Z,43.22
2019-04-26T22:48:33.915Z,44.02
2019-04-26T22:50:59.659Z,44.10
2019-04-26T22:53:29.332Z,44.00
2019-04-26T22:56:01.399Z,44.08
2019-04-26T22:58:30.217Z,43.82
2019-04-26T23:01:03.471Z,44.32
2019-04-26T23:03:28.265Z,43.76
2019-04-26T23:05:55.117Z,42.87
2019-04-26T23:08:25.841Z,42.56
2019-04-26T23:10:53.136Z,43.21
2019-04-26T23:13:23.850Z,42.33
2019-04-26T23:15:52.677Z,42.10
2019-04-26T23:20:53.217Z,42.88
2019-04-26T23:26:12.660Z,42.04
2019-04-26T23:28:40.302Z,42.28
2019-04-26T23:31:08.294Z,42.37
2019-04-26T23:33:42.912Z,41.64
2019-04-26T23:36:08.982Z,41.72
2019-04-26T23:38:37.635Z,41.79
2019-04-26T23:41:07.270Z,41.70
2019-04-26T23:43:37.882Z,41.66
2019-04-26T23:46:05.805Z,42.47
2019-04-26T23:48:34.506Z,42.31
2019-04-26T23:51:05.069Z,42.40
2019-04-26T23:53:33.627Z,41.39
2019-04-26T23:56:03.601Z,41.38
2019-04-26T23:58:30.658Z,41.50
